sensor_id;sensor_type;location;lat;lon;timestamp;P1;durP1;ratioP1;P2;durP2;ratioP2
51525;SDS011;37611;51.794;21.590;2023-08-06T00:02:59;23.50;;;21.10;;
51525;SDS011;37611;51.794;21.590;2023-08-06T00:07:00;23.00;;;20.60;;
51525;SDS011;37611;51.794;21.590;2023-08-06T00:11:02;25.30;;;22.60;;
51525;SDS011;37611;51.794;21.590;2023-08-06T00:15:04;25.10;;;22.60;;
51525;SDS011;37611;51.794;21.590;2023-08-06T00:19:06;25.90;;;22.60;;
51525;SDS011;37611;51.794;21.590;2023-08-06T00:23:08;24.90;;;22.40;;
51525;SDS011;37611;51.794;21.590;2023-08-06T00:27:10;24.40;;;22.10;;
51525;SDS011;37611;51.794;21.590;2023-08-06T00:31:11;24.00;;;21.70;;
51525;SDS011;37611;51.794;21.590;2023-08-06T00:35:13;22.30;;;20.30;;
51525;SDS011;37611;51.794;21.590;2023-08-06T00:39:15;26.10;;;22.10;;
51525;SDS011;37611;51.794;21.590;2023-08-06T00:43:16;23.00;;;20.70;;
51525;SDS011;37611;51.794;21.590;2023-08-06T00:47:18;22.90;;;20.70;;
51525;SDS011;37611;51.794;21.590;2023-08-06T00:51:21;22.10;;;20.10;;
51525;SDS011;37611;51.794;21.590;2023-08-06T00:55:23;22.40;;;20.30;;
51525;SDS011;37611;51.794;21.590;2023-08-06T00:59:25;24.00;;;21.50;;
51525;SDS011;37611;51.794;21.590;2023-08-06T01:03:27;22.70;;;20.40;;
51525;SDS011;37611;51.794;21.590;2023-08-06T01:07:47;22.60;;;20.20;;
51525;SDS011;37611;51.794;21.590;2023-08-06T01:16:18;22.80;;;20.60;;
51525;SDS011;37611;51.794;21.590;2023-08-06T01:20:22;20.90;;;18.90;;
51525;SDS011;37611;51.794;21.590;2023-08-06T01:24:29;22.40;;;20.20;;
51525;SDS011;37611;51.794;21.590;2023-08-06T01:32:46;23.70;;;21.20;;
51525;SDS011;37611;51.794;21.590;2023-08-06T01:36:52;22.70;;;20.60;;
51525;SDS011;37611;51.794;21.590;2023-08-06T01:40:54;22.00;;;19.70;;
51525;SDS011;37611;51.794;21.590;2023-08-06T01:44:56;22.50;;;19.80;;
51525;SDS011;37611;51.794;21.590;2023-08-06T01:48:58;21.10;;;19.20;;
51525;SDS011;37611;51.794;21.590;2023-08-06T01:52:59;21.90;;;19.80;;
51525;SDS011;37611;51.794;21.590;2023-08-06T01:57:01;23.00;;;20.60;;
51525;SDS011;37611;51.794;21.590;2023-08-06T02:01:02;22.20;;;20.10;;
51525;SDS011;37611;51.794;21.590;2023-08-06T02:05:04;22.80;;;20.70;;
51525;SDS011;37611;51.794;21.590;2023-08-06T02:09:06;22.70;;;20.50;;
51525;SDS011;37611;51.794;21.590;2023-08-06T02:13:08;24.80;;;22.40;;
51525;SDS011;37611;51.794;21.590;2023-08-06T02:17:10;22.90;;;20.60;;
51525;SDS011;37611;51.794;21.590;2023-08-06T02:21:11;24.90;;;22.30;;
51525;SDS011;37611;51.794;21.590;2023-08-06T02:25:13;22.60;;;20.20;;
51525;SDS011;37611;51.794;21.590;2023-08-06T02:29:15;24.00;;;21.40;;
51525;SDS011;37611;51.794;21.590;2023-08-06T02:33:17;24.40;;;19.90;;
51525;SDS011;37611;51.794;21.590;2023-08-06T02:37:18;23.90;;;20.30;;
51525;SDS011;37611;51.794;21.590;2023-08-06T02:41:20;21.60;;;19.40;;
51525;SDS011;37611;51.794;21.590;2023-08-06T02:45:22;18.90;;;17.10;;
51525;SDS011;37611;51.794;21.590;2023-08-06T02:49:23;20.00;;;18.00;;
51525;SDS011;37611;51.794;21.590;2023-08-06T02:53:25;20.40;;;18.30;;
51525;SDS011;37611;51.794;21.590;2023-08-06T02:57:27;21.00;;;19.10;;
51525;SDS011;37611;51.794;21.590;2023-08-06T03:01:29;20.60;;;18.70;;
51525;SDS011;37611;51.794;21.590;2023-08-06T03:05:30;20.70;;;18.50;;
51525;SDS011;37611;51.794;21.590;2023-08-06T03:09:32;20.70;;;18.60;;
51525;SDS011;37611;51.794;21.590;2023-08-06T03:13:33;19.60;;;17.60;;
51525;SDS011;37611;51.794;21.590;2023-08-06T03:17:35;18.20;;;16.40;;
51525;SDS011;37611;51.794;21.590;2023-08-06T03:21:37;16.80;;;15.10;;
51525;SDS011;37611;51.794;21.590;2023-08-06T03:25:39;15.80;;;14.40;;
51525;SDS011;37611;51.794;21.590;2023-08-06T03:29:40;15.40;;;14.00;;
51525;SDS011;37611;51.794;21.590;2023-08-06T03:33:42;15.40;;;13.80;;
51525;SDS011;37611;51.794;21.590;2023-08-06T03:37:44;13.70;;;12.20;;
51525;SDS011;37611;51.794;21.590;2023-08-06T03:41:45;14.30;;;13.00;;
51525;SDS011;37611;51.794;21.590;2023-08-06T03:45:47;13.90;;;12.60;;
51525;SDS011;37611;51.794;21.590;2023-08-06T03:49:49;14.40;;;12.80;;
51525;SDS011;37611;51.794;21.590;2023-08-06T03:53:51;13.30;;;11.80;;
51525;SDS011;37611;51.794;21.590;2023-08-06T03:57:52;12.90;;;11.60;;
51525;SDS011;37611;51.794;21.590;2023-08-06T04:01:54;12.20;;;11.10;;
51525;SDS011;37611;51.794;21.590;2023-08-06T04:05:56;12.60;;;11.30;;
51525;SDS011;37611;51.794;21.590;2023-08-06T04:09:58;13.30;;;11.20;;
51525;SDS011;37611;51.794;21.590;2023-08-06T04:14:01;12.10;;;11.10;;
51525;SDS011;37611;51.794;21.590;2023-08-06T04:18:03;11.50;;;10.50;;
51525;SDS011;37611;51.794;21.590;2023-08-06T04:22:05;16.00;;;10.90;;
51525;SDS011;37611;51.794;21.590;2023-08-06T04:26:06;16.10;;;11.10;;
51525;SDS011;37611;51.794;21.590;2023-08-06T04:30:08;12.20;;;10.30;;
51525;SDS011;37611;51.794;21.590;2023-08-06T04:34:10;10.10;;;9.00;;
51525;SDS011;37611;51.794;21.590;2023-08-06T04:38:13;14.30;;;9.20;;
51525;SDS011;37611;51.794;21.590;2023-08-06T04:42:14;10.10;;;8.70;;
51525;SDS011;37611;51.794;21.590;2023-08-06T04:46:16;11.00;;;8.00;;
51525;SDS011;37611;51.794;21.590;2023-08-06T04:50:18;9.20;;;8.30;;
51525;SDS011;37611;51.794;21.590;2023-08-06T04:54:20;9.20;;;7.80;;
51525;SDS011;37611;51.794;21.590;2023-08-06T04:58:22;11.10;;;7.40;;
51525;SDS011;37611;51.794;21.590;2023-08-06T05:02:24;11.50;;;7.00;;
51525;SDS011;37611;51.794;21.590;2023-08-06T05:06:25;10.20;;;6.90;;
51525;SDS011;37611;51.794;21.590;2023-08-06T05:10:27;8.20;;;7.00;;
51525;SDS011;37611;51.794;21.590;2023-08-06T05:14:29;9.20;;;7.10;;
51525;SDS011;37611;51.794;21.590;2023-08-06T05:18:30;8.10;;;7.30;;
51525;SDS011;37611;51.794;21.590;2023-08-06T05:22:32;9.20;;;7.50;;
51525;SDS011;37611;51.794;21.590;2023-08-06T05:26:34;10.00;;;7.20;;
51525;SDS011;37611;51.794;21.590;2023-08-06T05:30:38;9.70;;;7.50;;
51525;SDS011;37611;51.794;21.590;2023-08-06T05:34:41;8.90;;;7.30;;
51525;SDS011;37611;51.794;21.590;2023-08-06T05:38:43;10.50;;;7.20;;
51525;SDS011;37611;51.794;21.590;2023-08-06T05:42:44;12.40;;;7.30;;
51525;SDS011;37611;51.794;21.590;2023-08-06T05:46:46;9.90;;;6.90;;
51525;SDS011;37611;51.794;21.590;2023-08-06T05:50:48;12.00;;;7.20;;
51525;SDS011;37611;51.794;21.590;2023-08-06T05:54:49;9.00;;;7.10;;
51525;SDS011;37611;51.794;21.590;2023-08-06T05:58:51;10.50;;;8.00;;
51525;SDS011;37611;51.794;21.590;2023-08-06T06:02:54;11.60;;;7.80;;
51525;SDS011;37611;51.794;21.590;2023-08-06T06:06:56;10.40;;;8.10;;
51525;SDS011;37611;51.794;21.590;2023-08-06T06:10:57;10.90;;;8.20;;
51525;SDS011;37611;51.794;21.590;2023-08-06T06:14:59;11.10;;;7.60;;
51525;SDS011;37611;51.794;21.590;2023-08-06T06:19:02;10.60;;;7.40;;
51525;SDS011;37611;51.794;21.590;2023-08-06T06:23:04;10.90;;;7.70;;
51525;SDS011;37611;51.794;21.590;2023-08-06T06:27:05;8.10;;;7.30;;
51525;SDS011;37611;51.794;21.590;2023-08-06T06:31:08;11.10;;;7.30;;
51525;SDS011;37611;51.794;21.590;2023-08-06T06:35:10;10.00;;;7.60;;
51525;SDS011;37611;51.794;21.590;2023-08-06T06:39:12;15.20;;;8.10;;
51525;SDS011;37611;51.794;21.590;2023-08-06T06:43:13;15.10;;;7.30;;
51525;SDS011;37611;51.794;21.590;2023-08-06T06:47:15;8.90;;;7.10;;
51525;SDS011;37611;51.794;21.590;2023-08-06T06:51:17;11.30;;;7.10;;
51525;SDS011;37611;51.794;21.590;2023-08-06T06:55:18;8.90;;;7.00;;
51525;SDS011;37611;51.794;21.590;2023-08-06T06:59:20;8.30;;;7.10;;
51525;SDS011;37611;51.794;21.590;2023-08-06T07:03:22;9.10;;;7.50;;
51525;SDS011;37611;51.794;21.590;2023-08-06T07:07:23;10.60;;;6.90;;
51525;SDS011;37611;51.794;21.590;2023-08-06T07:11:25;9.00;;;6.90;;
51525;SDS011;37611;51.794;21.590;2023-08-06T07:15:27;7.80;;;7.00;;
51525;SDS011;37611;51.794;21.590;2023-08-06T07:19:29;11.00;;;7.20;;
51525;SDS011;37611;51.794;21.590;2023-08-06T07:23:30;11.60;;;7.50;;
51525;SDS011;37611;51.794;21.590;2023-08-06T07:27:32;14.00;;;6.70;;
51525;SDS011;37611;51.794;21.590;2023-08-06T07:31:34;11.60;;;6.50;;
51525;SDS011;37611;51.794;21.590;2023-08-06T07:35:36;10.50;;;6.60;;
51525;SDS011;37611;51.794;21.590;2023-08-06T07:39:38;9.00;;;6.90;;
51525;SDS011;37611;51.794;21.590;2023-08-06T07:43:45;10.70;;;7.40;;
51525;SDS011;37611;51.794;21.590;2023-08-06T07:47:48;8.50;;;6.60;;
51525;SDS011;37611;51.794;21.590;2023-08-06T07:51:53;13.40;;;7.00;;
51525;SDS011;37611;51.794;21.590;2023-08-06T07:55:54;8.50;;;7.60;;
51525;SDS011;37611;51.794;21.590;2023-08-06T07:59:57;9.20;;;7.30;;
51525;SDS011;37611;51.794;21.590;2023-08-06T08:03:58;9.00;;;6.70;;
51525;SDS011;37611;51.794;21.590;2023-08-06T08:08:00;11.40;;;7.00;;
51525;SDS011;37611;51.794;21.590;2023-08-06T08:12:02;7.60;;;6.20;;
51525;SDS011;37611;51.794;21.590;2023-08-06T08:16:04;7.40;;;6.50;;
51525;SDS011;37611;51.794;21.590;2023-08-06T08:20:06;9.30;;;7.00;;
51525;SDS011;37611;51.794;21.590;2023-08-06T08:24:08;11.40;;;6.20;;
51525;SDS011;37611;51.794;21.590;2023-08-06T08:28:10;9.50;;;6.40;;
51525;SDS011;37611;51.794;21.590;2023-08-06T08:32:11;10.70;;;6.50;;
51525;SDS011;37611;51.794;21.590;2023-08-06T08:36:13;7.90;;;6.10;;
51525;SDS011;37611;51.794;21.590;2023-08-06T08:40:15;7.00;;;5.70;;
51525;SDS011;37611;51.794;21.590;2023-08-06T08:44:17;8.40;;;5.80;;
51525;SDS011;37611;51.794;21.590;2023-08-06T08:48:19;6.70;;;5.60;;
51525;SDS011;37611;51.794;21.590;2023-08-06T08:52:22;6.50;;;5.90;;
51525;SDS011;37611;51.794;21.590;2023-08-06T08:56:27;6.50;;;5.80;;
51525;SDS011;37611;51.794;21.590;2023-08-06T09:00:30;7.80;;;5.30;;
51525;SDS011;37611;51.794;21.590;2023-08-06T09:04:33;12.80;;;5.90;;
51525;SDS011;37611;51.794;21.590;2023-08-06T09:08:39;6.20;;;5.50;;
51525;SDS011;37611;51.794;21.590;2023-08-06T09:12:44;6.00;;;5.20;;
51525;SDS011;37611;51.794;21.590;2023-08-06T09:16:48;9.40;;;5.80;;
51525;SDS011;37611;51.794;21.590;2023-08-06T09:20:49;7.20;;;5.60;;
51525;SDS011;37611;51.794;21.590;2023-08-06T09:24:51;7.10;;;5.00;;
51525;SDS011;37611;51.794;21.590;2023-08-06T09:28:53;8.60;;;5.10;;
51525;SDS011;37611;51.794;21.590;2023-08-06T09:32:54;6.00;;;5.20;;
51525;SDS011;37611;51.794;21.590;2023-08-06T09:36:56;6.10;;;5.50;;
51525;SDS011;37611;51.794;21.590;2023-08-06T09:40:58;5.60;;;4.80;;
51525;SDS011;37611;51.794;21.590;2023-08-06T09:45:05;6.00;;;5.40;;
51525;SDS011;37611;51.794;21.590;2023-08-06T09:49:08;7.30;;;4.90;;
51525;SDS011;37611;51.794;21.590;2023-08-06T09:53:11;6.00;;;4.90;;
51525;SDS011;37611;51.794;21.590;2023-08-06T09:57:13;5.20;;;4.60;;
51525;SDS011;37611;51.794;21.590;2023-08-06T10:01:16;7.40;;;4.80;;
51525;SDS011;37611;51.794;21.590;2023-08-06T10:05:19;5.70;;;5.00;;
51525;SDS011;37611;51.794;21.590;2023-08-06T10:09:21;5.20;;;4.70;;
51525;SDS011;37611;51.794;21.590;2023-08-06T10:13:23;4.80;;;4.40;;
51525;SDS011;37611;51.794;21.590;2023-08-06T10:17:26;4.70;;;4.30;;
51525;SDS011;37611;51.794;21.590;2023-08-06T10:21:30;6.60;;;4.20;;
51525;SDS011;37611;51.794;21.590;2023-08-06T10:25:39;9.00;;;4.50;;
51525;SDS011;37611;51.794;21.590;2023-08-06T10:29:43;5.90;;;4.30;;
51525;SDS011;37611;51.794;21.590;2023-08-06T10:33:45;5.40;;;4.60;;
51525;SDS011;37611;51.794;21.590;2023-08-06T10:37:49;8.60;;;5.20;;
51525;SDS011;37611;51.794;21.590;2023-08-06T10:41:51;9.60;;;4.80;;
51525;SDS011;37611;51.794;21.590;2023-08-06T10:45:52;5.70;;;5.10;;
51525;SDS011;37611;51.794;21.590;2023-08-06T10:49:54;6.80;;;5.20;;
51525;SDS011;37611;51.794;21.590;2023-08-06T10:53:56;6.90;;;6.00;;
51525;SDS011;37611;51.794;21.590;2023-08-06T10:57:59;6.30;;;5.70;;
51525;SDS011;37611;51.794;21.590;2023-08-06T11:02:01;10.90;;;5.90;;
51525;SDS011;37611;51.794;21.590;2023-08-06T11:06:02;7.10;;;5.60;;
51525;SDS011;37611;51.794;21.590;2023-08-06T11:10:05;6.50;;;5.90;;
51525;SDS011;37611;51.794;21.590;2023-08-06T11:14:14;7.30;;;5.70;;
51525;SDS011;37611;51.794;21.590;2023-08-06T11:18:16;8.30;;;5.90;;
51525;SDS011;37611;51.794;21.590;2023-08-06T11:22:18;9.00;;;6.00;;
51525;SDS011;37611;51.794;21.590;2023-08-06T11:26:20;6.20;;;5.20;;
51525;SDS011;37611;51.794;21.590;2023-08-06T11:30:24;6.20;;;5.40;;
51525;SDS011;37611;51.794;21.590;2023-08-06T11:34:28;7.10;;;5.60;;
51525;SDS011;37611;51.794;21.590;2023-08-06T11:38:30;9.70;;;5.50;;
51525;SDS011;37611;51.794;21.590;2023-08-06T11:42:34;6.40;;;5.00;;
51525;SDS011;37611;51.794;21.590;2023-08-06T11:46:50;5.10;;;4.60;;
51525;SDS011;37611;51.794;21.590;2023-08-06T11:50:54;12.90;;;6.00;;
51525;SDS011;37611;51.794;21.590;2023-08-06T11:55:05;11.30;;;5.60;;
51525;SDS011;37611;51.794;21.590;2023-08-06T11:59:09;6.70;;;6.00;;
51525;SDS011;37611;51.794;21.590;2023-08-06T12:03:11;8.00;;;6.60;;
51525;SDS011;37611;51.794;21.590;2023-08-06T12:07:13;8.70;;;5.50;;
51525;SDS011;37611;51.794;21.590;2023-08-06T12:11:14;9.80;;;5.60;;
51525;SDS011;37611;51.794;21.590;2023-08-06T12:15:16;7.50;;;5.30;;
51525;SDS011;37611;51.794;21.590;2023-08-06T12:19:18;5.80;;;5.10;;
51525;SDS011;37611;51.794;21.590;2023-08-06T12:23:20;6.20;;;5.60;;
51525;SDS011;37611;51.794;21.590;2023-08-06T12:27:22;6.40;;;5.50;;
51525;SDS011;37611;51.794;21.590;2023-08-06T12:31:24;9.30;;;5.20;;
51525;SDS011;37611;51.794;21.590;2023-08-06T12:35:25;5.40;;;4.90;;
51525;SDS011;37611;51.794;21.590;2023-08-06T12:39:27;9.90;;;5.00;;
51525;SDS011;37611;51.794;21.590;2023-08-06T12:43:30;8.90;;;4.40;;
51525;SDS011;37611;51.794;21.590;2023-08-06T12:47:31;9.80;;;4.50;;
51525;SDS011;37611;51.794;21.590;2023-08-06T12:51:33;5.20;;;3.30;;
51525;SDS011;37611;51.794;21.590;2023-08-06T12:55:35;5.60;;;3.00;;
51525;SDS011;37611;51.794;21.590;2023-08-06T12:59:36;4.60;;;3.10;;
51525;SDS011;37611;51.794;21.590;2023-08-06T13:03:38;4.90;;;3.40;;
51525;SDS011;37611;51.794;21.590;2023-08-06T13:07:40;7.60;;;4.00;;
51525;SDS011;37611;51.794;21.590;2023-08-06T13:11:43;5.50;;;3.90;;
51525;SDS011;37611;51.794;21.590;2023-08-06T13:15:48;4.80;;;4.00;;
51525;SDS011;37611;51.794;21.590;2023-08-06T13:19:55;4.90;;;4.40;;
51525;SDS011;37611;51.794;21.590;2023-08-06T13:24:02;4.70;;;4.30;;
51525;SDS011;37611;51.794;21.590;2023-08-06T13:28:06;4.90;;;4.40;;
51525;SDS011;37611;51.794;21.590;2023-08-06T13:32:13;4.90;;;4.40;;
51525;SDS011;37611;51.794;21.590;2023-08-06T13:36:17;4.50;;;4.10;;
51525;SDS011;37611;51.794;21.590;2023-08-06T13:40:19;4.60;;;4.20;;
51525;SDS011;37611;51.794;21.590;2023-08-06T13:44:23;4.50;;;4.10;;
51525;SDS011;37611;51.794;21.590;2023-08-06T13:48:31;5.00;;;4.30;;
51525;SDS011;37611;51.794;21.590;2023-08-06T13:52:33;3.90;;;3.60;;
51525;SDS011;37611;51.794;21.590;2023-08-06T13:56:36;5.50;;;3.60;;
51525;SDS011;37611;51.794;21.590;2023-08-06T14:00:50;5.00;;;3.90;;
51525;SDS011;37611;51.794;21.590;2023-08-06T14:04:54;4.00;;;3.70;;
51525;SDS011;37611;51.794;21.590;2023-08-06T14:08:57;5.60;;;4.30;;
51525;SDS011;37611;51.794;21.590;2023-08-06T14:13:04;5.20;;;3.80;;
51525;SDS011;37611;51.794;21.590;2023-08-06T14:17:06;4.40;;;3.70;;
51525;SDS011;37611;51.794;21.590;2023-08-06T14:21:07;4.80;;;4.00;;
51525;SDS011;37611;51.794;21.590;2023-08-06T14:25:10;5.20;;;3.40;;
51525;SDS011;37611;51.794;21.590;2023-08-06T14:29:12;3.30;;;3.00;;
51525;SDS011;37611;51.794;21.590;2023-08-06T14:33:15;3.40;;;3.10;;
51525;SDS011;37611;51.794;21.590;2023-08-06T14:37:19;3.40;;;3.10;;
51525;SDS011;37611;51.794;21.590;2023-08-06T14:41:21;3.50;;;2.50;;
51525;SDS011;37611;51.794;21.590;2023-08-06T14:45:23;5.30;;;2.70;;
51525;SDS011;37611;51.794;21.590;2023-08-06T14:49:25;3.30;;;2.20;;
51525;SDS011;37611;51.794;21.590;2023-08-06T14:53:29;5.50;;;2.00;;
51525;SDS011;37611;51.794;21.590;2023-08-06T14:57:31;3.70;;;1.90;;
51525;SDS011;37611;51.794;21.590;2023-08-06T15:01:33;3.40;;;1.80;;
51525;SDS011;37611;51.794;21.590;2023-08-06T15:05:42;2.60;;;1.90;;
51525;SDS011;37611;51.794;21.590;2023-08-06T15:09:46;3.40;;;2.00;;
51525;SDS011;37611;51.794;21.590;2023-08-06T15:13:48;3.00;;;1.80;;
51525;SDS011;37611;51.794;21.590;2023-08-06T15:17:51;1.40;;;1.30;;
51525;SDS011;37611;51.794;21.590;2023-08-06T15:21:55;1.00;;;0.90;;
51525;SDS011;37611;51.794;21.590;2023-08-06T15:25:59;3.20;;;1.20;;
51525;SDS011;37611;51.794;21.590;2023-08-06T15:30:04;4.90;;;1.10;;
51525;SDS011;37611;51.794;21.590;2023-08-06T15:34:06;2.40;;;0.90;;
51525;SDS011;37611;51.794;21.590;2023-08-06T15:38:09;1.20;;;0.90;;
51525;SDS011;37611;51.794;21.590;2023-08-06T15:42:11;3.80;;;2.70;;
51525;SDS011;37611;51.794;21.590;2023-08-06T15:46:13;7.00;;;4.40;;
51525;SDS011;37611;51.794;21.590;2023-08-06T15:54:32;1.60;;;1.20;;
51525;SDS011;37611;51.794;21.590;2023-08-06T15:58:34;1.10;;;0.80;;
51525;SDS011;37611;51.794;21.590;2023-08-06T16:02:39;2.30;;;0.50;;
51525;SDS011;37611;51.794;21.590;2023-08-06T16:06:42;2.40;;;0.70;;
51525;SDS011;37611;51.794;21.590;2023-08-06T16:10:51;2.60;;;0.80;;
51525;SDS011;37611;51.794;21.590;2023-08-06T16:14:55;0.90;;;0.70;;
51525;SDS011;37611;51.794;21.590;2023-08-06T16:19:01;1.40;;;0.90;;
51525;SDS011;37611;51.794;21.590;2023-08-06T16:23:10;1.30;;;1.00;;
51525;SDS011;37611;51.794;21.590;2023-08-06T16:27:13;3.50;;;1.10;;
51525;SDS011;37611;51.794;21.590;2023-08-06T16:31:19;1.80;;;0.90;;
51525;SDS011;37611;51.794;21.590;2023-08-06T16:35:28;1.60;;;1.00;;
51525;SDS011;37611;51.794;21.590;2023-08-06T16:39:31;3.40;;;1.00;;
51525;SDS011;37611;51.794;21.590;2023-08-06T16:43:37;2.50;;;0.90;;
51525;SDS011;37611;51.794;21.590;2023-08-06T16:47:40;2.50;;;1.60;;
51525;SDS011;37611;51.794;21.590;2023-08-06T16:51:42;5.20;;;2.30;;
51525;SDS011;37611;51.794;21.590;2023-08-06T16:55:44;2.30;;;1.60;;
51525;SDS011;37611;51.794;21.590;2023-08-06T16:59:48;2.10;;;0.80;;
51525;SDS011;37611;51.794;21.590;2023-08-06T17:03:50;2.00;;;0.90;;
51525;SDS011;37611;51.794;21.590;2023-08-06T17:07:54;1.50;;;1.00;;
51525;SDS011;37611;51.794;21.590;2023-08-06T17:11:59;2.90;;;1.20;;
51525;SDS011;37611;51.794;21.590;2023-08-06T17:16:31;3.20;;;1.40;;
51525;SDS011;37611;51.794;21.590;2023-08-06T17:20:46;1.80;;;1.30;;
51525;SDS011;37611;51.794;21.590;2023-08-06T17:24:51;5.20;;;2.30;;
51525;SDS011;37611;51.794;21.590;2023-08-06T17:29:08;1.90;;;1.40;;
51525;SDS011;37611;51.794;21.590;2023-08-06T17:33:22;3.20;;;1.30;;
51525;SDS011;37611;51.794;21.590;2023-08-06T17:37:36;3.40;;;2.50;;
51525;SDS011;37611;51.794;21.590;2023-08-06T17:41:52;1.70;;;0.90;;
51525;SDS011;37611;51.794;21.590;2023-08-06T17:46:11;1.60;;;1.00;;
51525;SDS011;37611;51.794;21.590;2023-08-06T17:50:14;2.50;;;1.10;;
51525;SDS011;37611;51.794;21.590;2023-08-06T17:54:18;2.20;;;1.00;;
51525;SDS011;37611;51.794;21.590;2023-08-06T17:58:21;2.60;;;1.10;;
51525;SDS011;37611;51.794;21.590;2023-08-06T18:02:23;1.90;;;0.90;;
51525;SDS011;37611;51.794;21.590;2023-08-06T18:06:25;1.70;;;0.70;;
51525;SDS011;37611;51.794;21.590;2023-08-06T18:10:27;2.90;;;0.80;;
51525;SDS011;37611;51.794;21.590;2023-08-06T18:14:29;2.20;;;0.60;;
51525;SDS011;37611;51.794;21.590;2023-08-06T18:18:30;1.20;;;0.70;;
51525;SDS011;37611;51.794;21.590;2023-08-06T18:22:32;0.60;;;0.50;;
51525;SDS011;37611;51.794;21.590;2023-08-06T18:26:35;3.00;;;0.90;;
51525;SDS011;37611;51.794;21.590;2023-08-06T18:30:36;1.00;;;0.70;;
51525;SDS011;37611;51.794;21.590;2023-08-06T18:34:38;1.40;;;0.70;;
51525;SDS011;37611;51.794;21.590;2023-08-06T18:38:40;0.60;;;0.50;;
51525;SDS011;37611;51.794;21.590;2023-08-06T18:42:43;0.90;;;0.70;;
51525;SDS011;37611;51.794;21.590;2023-08-06T18:46:45;2.00;;;0.90;;
51525;SDS011;37611;51.794;21.590;2023-08-06T18:50:47;0.70;;;0.60;;
51525;SDS011;37611;51.794;21.590;2023-08-06T18:54:49;1.70;;;0.60;;
51525;SDS011;37611;51.794;21.590;2023-08-06T18:58:51;0.40;;;0.40;;
51525;SDS011;37611;51.794;21.590;2023-08-06T19:02:53;0.70;;;0.40;;
51525;SDS011;37611;51.794;21.590;2023-08-06T19:06:55;0.40;;;0.40;;
51525;SDS011;37611;51.794;21.590;2023-08-06T19:10:57;1.30;;;0.50;;
51525;SDS011;37611;51.794;21.590;2023-08-06T19:14:59;0.40;;;0.30;;
51525;SDS011;37611;51.794;21.590;2023-08-06T19:19:01;0.50;;;0.40;;
51525;SDS011;37611;51.794;21.590;2023-08-06T19:23:02;1.80;;;0.40;;
51525;SDS011;37611;51.794;21.590;2023-08-06T19:27:05;2.50;;;0.70;;
51525;SDS011;37611;51.794;21.590;2023-08-06T19:31:08;2.00;;;0.90;;
51525;SDS011;37611;51.794;21.590;2023-08-06T19:35:10;2.10;;;1.10;;
51525;SDS011;37611;51.794;21.590;2023-08-06T19:39:12;1.40;;;1.30;;
51525;SDS011;37611;51.794;21.590;2023-08-06T19:43:14;2.80;;;1.10;;
51525;SDS011;37611;51.794;21.590;2023-08-06T19:47:20;1.50;;;1.40;;
51525;SDS011;37611;51.794;21.590;2023-08-06T19:51:23;1.80;;;1.20;;
51525;SDS011;37611;51.794;21.590;2023-08-06T19:55:27;2.10;;;1.10;;
51525;SDS011;37611;51.794;21.590;2023-08-06T19:59:29;1.80;;;1.20;;
51525;SDS011;37611;51.794;21.590;2023-08-06T20:03:31;1.60;;;1.20;;
51525;SDS011;37611;51.794;21.590;2023-08-06T20:07:33;1.40;;;1.00;;
51525;SDS011;37611;51.794;21.590;2023-08-06T20:11:35;1.30;;;0.90;;
51525;SDS011;37611;51.794;21.590;2023-08-06T20:15:36;2.00;;;1.20;;
51525;SDS011;37611;51.794;21.590;2023-08-06T20:19:38;1.70;;;1.00;;
51525;SDS011;37611;51.794;21.590;2023-08-06T20:23:41;1.30;;;0.90;;
51525;SDS011;37611;51.794;21.590;2023-08-06T20:27:42;1.50;;;1.20;;
51525;SDS011;37611;51.794;21.590;2023-08-06T20:31:44;1.10;;;0.80;;
51525;SDS011;37611;51.794;21.590;2023-08-06T20:35:46;1.50;;;1.00;;
51525;SDS011;37611;51.794;21.590;2023-08-06T20:39:48;1.30;;;1.00;;
51525;SDS011;37611;51.794;21.590;2023-08-06T20:43:49;1.10;;;1.00;;
51525;SDS011;37611;51.794;21.590;2023-08-06T20:47:51;1.20;;;1.10;;
51525;SDS011;37611;51.794;21.590;2023-08-06T20:51:53;1.00;;;0.90;;
51525;SDS011;37611;51.794;21.590;2023-08-06T20:55:58;1.20;;;0.80;;
51525;SDS011;37611;51.794;21.590;2023-08-06T21:00:01;1.60;;;1.00;;
51525;SDS011;37611;51.794;21.590;2023-08-06T21:04:04;1.30;;;1.00;;
51525;SDS011;37611;51.794;21.590;2023-08-06T21:08:08;1.20;;;0.70;;
51525;SDS011;37611;51.794;21.590;2023-08-06T21:12:10;2.10;;;0.70;;
51525;SDS011;37611;51.794;21.590;2023-08-06T21:16:12;0.50;;;0.50;;
51525;SDS011;37611;51.794;21.590;2023-08-06T21:20:14;0.80;;;0.60;;
51525;SDS011;37611;51.794;21.590;2023-08-06T21:24:16;0.70;;;0.60;;
51525;SDS011;37611;51.794;21.590;2023-08-06T21:28:18;1.00;;;0.50;;
51525;SDS011;37611;51.794;21.590;2023-08-06T21:32:20;1.90;;;0.50;;
51525;SDS011;37611;51.794;21.590;2023-08-06T21:36:22;0.70;;;0.40;;
51525;SDS011;37611;51.794;21.590;2023-08-06T21:40:26;0.30;;;0.30;;
51525;SDS011;37611;51.794;21.590;2023-08-06T21:44:28;1.20;;;0.60;;
51525;SDS011;37611;51.794;21.590;2023-08-06T21:48:30;0.90;;;0.50;;
51525;SDS011;37611;51.794;21.590;2023-08-06T21:52:33;0.60;;;0.40;;
51525;SDS011;37611;51.794;21.590;2023-08-06T21:56:34;0.50;;;0.40;;
51525;SDS011;37611;51.794;21.590;2023-08-06T22:00:36;1.10;;;1.00;;
51525;SDS011;37611;51.794;21.590;2023-08-06T22:04:38;1.50;;;0.60;;
51525;SDS011;37611;51.794;21.590;2023-08-06T22:08:40;2.10;;;0.50;;
51525;SDS011;37611;51.794;21.590;2023-08-06T22:12:43;0.40;;;0.40;;
51525;SDS011;37611;51.794;21.590;2023-08-06T22:16:45;0.40;;;0.40;;
51525;SDS011;37611;51.794;21.590;2023-08-06T22:20:47;1.40;;;0.50;;
51525;SDS011;37611;51.794;21.590;2023-08-06T22:24:50;1.20;;;0.50;;
51525;SDS011;37611;51.794;21.590;2023-08-06T22:28:51;0.90;;;0.50;;
51525;SDS011;37611;51.794;21.590;2023-08-06T22:32:53;1.50;;;0.30;;
51525;SDS011;37611;51.794;21.590;2023-08-06T22:36:55;1.70;;;0.50;;
51525;SDS011;37611;51.794;21.590;2023-08-06T22:40:56;1.20;;;0.40;;
51525;SDS011;37611;51.794;21.590;2023-08-06T22:44:58;1.60;;;0.40;;
51525;SDS011;37611;51.794;21.590;2023-08-06T22:49:00;3.10;;;0.40;;
51525;SDS011;37611;51.794;21.590;2023-08-06T22:53:02;0.90;;;0.50;;
51525;SDS011;37611;51.794;21.590;2023-08-06T22:57:04;2.90;;;0.40;;
51525;SDS011;37611;51.794;21.590;2023-08-06T23:01:07;1.20;;;0.30;;
51525;SDS011;37611;51.794;21.590;2023-08-06T23:05:08;0.50;;;0.30;;
51525;SDS011;37611;51.794;21.590;2023-08-06T23:09:10;2.40;;;0.40;;
51525;SDS011;37611;51.794;21.590;2023-08-06T23:13:12;0.90;;;0.30;;
51525;SDS011;37611;51.794;21.590;2023-08-06T23:17:14;0.40;;;0.30;;
51525;SDS011;37611;51.794;21.590;2023-08-06T23:21:15;0.70;;;0.40;;
51525;SDS011;37611;51.794;21.590;2023-08-06T23:25:17;0.50;;;0.40;;
51525;SDS011;37611;51.794;21.590;2023-08-06T23:29:19;0.40;;;0.30;;
51525;SDS011;37611;51.794;21.590;2023-08-06T23:33:21;0.70;;;0.30;;
51525;SDS011;37611;51.794;21.590;2023-08-06T23:37:23;0.60;;;0.30;;
51525;SDS011;37611;51.794;21.590;2023-08-06T23:41:25;0.30;;;0.20;;
51525;SDS011;37611;51.794;21.590;2023-08-06T23:45:29;0.40;;;0.30;;
51525;SDS011;37611;51.794;21.590;2023-08-06T23:49:30;0.30;;;0.30;;
51525;SDS011;37611;51.794;21.590;2023-08-06T23:53:32;0.20;;;0.20;;
51525;SDS011;37611;51.794;21.590;2023-08-06T23:57:34;1.80;;;0.30;;
